createdAt,value
2022-10-08T00:01:28.058Z,10.27
2022-10-08T00:03:58.306Z,10.88
2022-10-08T00:06:32.556Z,10.82
2022-10-08T00:09:03.552Z,10.00
2022-10-08T00:11:35.444Z,10.13
2022-10-08T00:14:07.583Z,11.13
2022-10-08T00:16:41.005Z,11.05
2022-10-08T00:19:13.245Z,10.90
2022-10-08T00:21:43.991Z,12.20
2022-10-08T00:24:17.771Z,12.27
2022-10-08T00:26:48.058Z,11.73
2022-10-08T00:29:18.308Z,12.25
2022-10-08T00:31:49.144Z,11.00
2022-10-08T00:34:23.086Z,11.00
2022-10-08T00:36:55.135Z,11.65
2022-10-08T00:39:25.017Z,12.07
2022-10-08T00:41:55.806Z,11.82
2022-10-08T00:44:53.679Z,12.85
2022-10-08T00:47:26.848Z,12.18
2022-10-08T00:49:59.894Z,11.95
2022-10-08T00:52:33.710Z,12.38
2022-10-08T00:55:06.577Z,11.95
2022-10-08T00:57:36.090Z,11.80
2022-10-08T01:00:19.212Z,12.25
2022-10-08T01:02:49.991Z,11.75
2022-10-08T01:05:34.563Z,11.57
2022-10-08T01:08:10.864Z,11.73
2022-10-08T01:11:20.109Z,12.07
2022-10-08T01:14:13.468Z,12.60
2022-10-08T01:17:15.790Z,12.63
2022-10-08T01:20:29.589Z,11.75
2022-10-08T01:23:18.248Z,11.75
2022-10-08T01:26:47.098Z,11.82
2022-10-08T01:29:25.382Z,12.38
2022-10-08T01:32:03.574Z,11.70
2022-10-08T01:35:11.082Z,12.25
2022-10-08T01:37:43.138Z,12.82
2022-10-08T01:40:27.477Z,13.65
2022-10-08T01:42:56.338Z,11.88
2022-10-08T01:45:31.694Z,12.43
2022-10-08T01:48:04.264Z,12.45
2022-10-08T01:50:41.264Z,11.82
2022-10-08T01:53:15.217Z,12.55
2022-10-08T01:55:49.067Z,11.20
2022-10-08T01:58:29.005Z,11.65
2022-10-08T02:01:02.822Z,12.50
2022-10-08T02:03:33.289Z,12.00
2022-10-08T02:06:04.403Z,13.60
2022-10-08T02:08:34.956Z,13.55
2022-10-08T02:11:02.058Z,14.25
2022-10-08T02:13:30.536Z,14.25
2022-10-08T02:16:11.850Z,13.20
2022-10-08T02:19:01.337Z,13.50
2022-10-08T02:24:26.905Z,13.43
2022-10-08T02:26:57.340Z,12.93
2022-10-08T02:30:04.786Z,14.48
2022-10-08T02:32:38.658Z,12.90
2022-10-08T02:35:22.898Z,12.93
2022-10-08T02:38:03.973Z,13.02
2022-10-08T02:40:40.290Z,12.55
2022-10-08T02:43:14.354Z,12.85
2022-10-08T02:45:55.217Z,13.63
2022-10-08T02:48:32.166Z,12.73
2022-10-08T02:51:08.064Z,12.95
2022-10-08T02:53:40.466Z,12.98
2022-10-08T02:56:25.285Z,12.95
2022-10-08T02:58:53.300Z,13.33
2022-10-08T03:02:01.056Z,14.13
2022-10-08T03:04:43.736Z,13.10
2022-10-08T03:07:13.873Z,13.10
2022-10-08T03:09:46.111Z,13.70
2022-10-08T03:12:13.287Z,12.50
2022-10-08T03:14:43.787Z,12.57
2022-10-08T03:17:15.041Z,13.38
2022-10-08T03:19:42.109Z,13.10
2022-10-08T03:22:09.970Z,14.65
2022-10-08T03:24:40.525Z,13.07
2022-10-08T03:27:08.081Z,13.50
2022-10-08T03:29:35.229Z,14.13
2022-10-08T03:32:02.287Z,12.95
2022-10-08T03:34:29.901Z,13.65
2022-10-08T03:36:57.523Z,14.48
2022-10-08T03:39:24.571Z,14.50
2022-10-08T03:41:52.054Z,14.48
2022-10-08T03:44:19.601Z,14.82
2022-10-08T03:46:47.167Z,14.60
2022-10-08T03:49:14.915Z,14.27
2022-10-08T03:51:42.187Z,15.18
2022-10-08T03:54:09.836Z,14.90
2022-10-08T03:56:37.400Z,14.70
2022-10-08T03:59:05.028Z,13.68
2022-10-08T04:01:32.244Z,14.30
2022-10-08T04:03:59.521Z,13.95
2022-10-08T04:06:27.077Z,14.35
2022-10-08T04:09:01.101Z,14.15
2022-10-08T04:11:29.601Z,13.30
2022-10-08T04:14:01.258Z,13.88
2022-10-08T04:16:28.350Z,13.68
2022-10-08T04:18:55.473Z,15.77
2022-10-08T04:21:22.623Z,14.48
2022-10-08T04:23:53.340Z,13.88
2022-10-08T04:26:20.580Z,13.70
2022-10-08T04:28:48.388Z,15.57
2022-10-08T04:31:19.659Z,14.73
2022-10-08T04:33:52.133Z,14.38
2022-10-08T04:36:23.848Z,13.90
2022-10-08T04:38:51.855Z,12.93
2022-10-08T04:41:22.394Z,12.23
2022-10-08T04:43:49.976Z,13.15
2022-10-08T04:46:22.182Z,12.55
2022-10-08T04:48:54.902Z,14.45
2022-10-08T04:51:25.255Z,12.90
2022-10-08T04:53:57.524Z,13.75
2022-10-08T04:56:29.717Z,14.38
2022-10-08T04:58:59.682Z,16.02
2022-10-08T05:01:28.209Z,16.17
2022-10-08T05:03:58.485Z,13.65
2022-10-08T05:06:31.611Z,15.40
2022-10-08T05:09:03.215Z,15.52
2022-10-08T05:11:31.603Z,15.93
2022-10-08T05:13:59.925Z,15.80
2022-10-08T05:16:28.073Z,15.52
2022-10-08T05:18:56.050Z,16.00
2022-10-08T05:21:27.791Z,15.98
2022-10-08T05:24:00.852Z,15.60
2022-10-08T05:29:22.836Z,17.35
2022-10-08T05:31:49.880Z,16.35
2022-10-08T05:34:23.578Z,16.35
2022-10-08T05:36:50.928Z,17.70
2022-10-08T05:39:24.747Z,16.95
2022-10-08T05:41:53.311Z,16.70
2022-10-08T05:44:20.833Z,18.08
2022-10-08T05:46:47.949Z,17.88
2022-10-08T05:49:20.893Z,17.52
2022-10-08T05:51:49.538Z,16.58
2022-10-08T05:54:18.511Z,17.33
2022-10-08T05:56:45.586Z,17.05
2022-10-08T05:59:18.866Z,19.88
2022-10-08T06:01:46.993Z,18.85
2022-10-08T06:04:14.242Z,19.52
2022-10-08T06:06:44.345Z,20.33
2022-10-08T06:09:16.332Z,20.45
2022-10-08T06:11:43.740Z,20.73
2022-10-08T06:14:24.374Z,18.85
2022-10-08T06:16:52.067Z,17.38
2022-10-08T06:19:22.819Z,20.83
2022-10-08T06:21:50.276Z,20.40
2022-10-08T06:24:17.526Z,21.13
2022-10-08T06:26:45.192Z,22.05
2022-10-08T06:29:16.684Z,22.63
2022-10-08T06:31:46.007Z,21.58
2022-10-08T06:34:17.246Z,21.20
2022-10-08T06:36:44.384Z,23.65
2022-10-08T06:39:15.919Z,23.90
2022-10-08T06:41:43.843Z,21.80
2022-10-08T06:44:15.776Z,23.17
2022-10-08T06:46:43.285Z,22.13
2022-10-08T06:49:11.969Z,22.23
2022-10-08T06:51:39.183Z,25.58
2022-10-08T06:54:09.091Z,25.85
2022-10-08T06:56:39.176Z,24.77
2022-10-08T06:59:07.685Z,24.08
2022-10-08T07:01:35.931Z,24.58
2022-10-08T07:04:05.124Z,23.92
2022-10-08T07:06:35.929Z,22.58
2022-10-08T07:09:07.658Z,24.00
2022-10-08T07:11:35.311Z,24.35
2022-10-08T07:14:03.057Z,22.73
2022-10-08T07:16:39.627Z,23.52
2022-10-08T07:19:06.858Z,24.80
2022-10-08T07:21:33.904Z,23.33
2022-10-08T07:24:02.061Z,24.83
2022-10-08T07:26:35.095Z,25.45
2022-10-08T07:29:07.730Z,25.73
2022-10-08T07:31:37.502Z,21.60
2022-10-08T07:34:10.931Z,20.48
2022-10-08T07:36:39.809Z,20.92
2022-10-08T07:39:13.856Z,21.35
2022-10-08T07:41:41.767Z,21.92
2022-10-08T07:44:12.173Z,21.05
2022-10-08T07:46:44.833Z,21.13
2022-10-08T07:49:17.637Z,23.13
2022-10-08T07:51:48.201Z,22.33
2022-10-08T07:54:20.172Z,23.17
2022-10-08T07:56:47.558Z,20.98
2022-10-08T07:59:16.217Z,22.85
2022-10-08T08:01:46.926Z,22.95
2022-10-08T08:04:17.428Z,23.23
2022-10-08T08:06:52.427Z,21.77
2022-10-08T08:09:23.235Z,22.55
2022-10-08T08:11:50.431Z,22.45
2022-10-08T08:14:19.755Z,22.67
2022-10-08T08:16:49.731Z,23.27
2022-10-08T08:19:16.812Z,23.52
2022-10-08T08:21:47.330Z,22.98
2022-10-08T08:24:16.576Z,23.52
2022-10-08T08:26:47.098Z,24.48
2022-10-08T08:29:19.102Z,24.55
2022-10-08T08:31:49.280Z,24.40
2022-10-08T08:34:22.969Z,25.20
2022-10-08T08:36:53.658Z,25.33
2022-10-08T08:39:27.260Z,24.38
2022-10-08T08:42:42.821Z,24.92
2022-10-08T08:45:46.403Z,23.83
2022-10-08T08:48:24.900Z,23.48
2022-10-08T08:50:56.197Z,22.45
2022-10-08T08:53:23.523Z,22.83
2022-10-08T08:55:55.441Z,24.33
2022-10-08T08:58:58.731Z,23.10
2022-10-08T09:01:42.018Z,22.95
2022-10-08T09:04:45.375Z,23.95
2022-10-08T09:07:22.911Z,23.08
2022-10-08T09:09:58.801Z,23.85
2022-10-08T09:12:43.813Z,23.63
2022-10-08T09:15:21.149Z,22.23
2022-10-08T09:17:53.065Z,22.45
2022-10-08T09:20:24.553Z,22.60
2022-10-08T09:22:55.840Z,22.05
2022-10-08T09:25:32.939Z,22.40
2022-10-08T09:28:04.800Z,21.05
2022-10-08T09:30:41.610Z,22.70
2022-10-08T09:33:18.509Z,21.02
2022-10-08T09:35:50.075Z,20.20
2022-10-08T09:38:38.142Z,20.45
2022-10-08T09:41:18.703Z,20.13
2022-10-08T09:44:04.923Z,20.55
2022-10-08T09:46:33.501Z,21.65
2022-10-08T09:49:23.516Z,17.48
2022-10-08T09:51:51.444Z,17.92
2022-10-08T09:54:27.213Z,19.45
2022-10-08T09:57:01.427Z,19.92
2022-10-08T09:59:35.844Z,18.85
2022-10-08T10:02:07.778Z,20.05
2022-10-08T10:04:38.778Z,18.92
2022-10-08T10:07:06.435Z,19.33
2022-10-08T10:09:49.685Z,16.88
2022-10-08T10:12:35.675Z,18.80
2022-10-08T10:18:02.373Z,17.48
2022-10-08T10:20:39.650Z,17.30
2022-10-08T10:23:14.163Z,16.25
2022-10-08T10:26:06.186Z,16.55
2022-10-08T10:28:51.064Z,19.25
2022-10-08T10:31:33.318Z,16.95
2022-10-08T10:34:20.806Z,19.33
2022-10-08T10:37:04.424Z,16.77
2022-10-08T10:39:48.628Z,18.20
2022-10-08T10:42:35.393Z,19.08
2022-10-08T10:45:14.384Z,17.15
2022-10-08T10:47:41.820Z,17.60
2022-10-08T10:50:19.949Z,16.98
2022-10-08T10:53:11.057Z,19.23
2022-10-08T10:56:01.958Z,16.92
2022-10-08T10:59:09.516Z,16.80
2022-10-08T11:01:40.168Z,17.08
2022-10-08T11:05:06.178Z,15.75
2022-10-08T11:08:09.782Z,14.88
2022-10-08T11:11:09.531Z,15.07
2022-10-08T11:13:54.875Z,15.20
2022-10-08T11:16:46.676Z,16.17
2022-10-08T11:19:48.594Z,15.60
2022-10-08T11:22:44.177Z,13.93
2022-10-08T11:25:19.348Z,14.90
2022-10-08T11:27:58.904Z,14.65
2022-10-08T11:30:58.549Z,15.40
2022-10-08T11:33:26.927Z,15.98
2022-10-08T11:36:09.237Z,17.73
2022-10-08T11:38:50.949Z,15.82
2022-10-08T11:41:55.764Z,16.23
2022-10-08T11:44:23.417Z,13.27
2022-10-08T11:46:50.590Z,15.05
2022-10-08T11:49:20.326Z,13.98
2022-10-08T11:51:51.279Z,13.65
2022-10-08T11:54:34.246Z,14.48
2022-10-08T12:00:08.615Z,14.70
2022-10-08T12:02:44.080Z,13.85
2022-10-08T12:05:22.345Z,13.52
2022-10-08T12:07:58.683Z,14.57
2022-10-08T12:10:40.262Z,12.45
2022-10-08T12:13:17.557Z,13.80
2022-10-08T12:15:45.009Z,13.48
2022-10-08T12:18:25.140Z,13.10
2022-10-08T12:21:20.359Z,14.20
2022-10-08T12:23:47.621Z,13.25
2022-10-08T12:26:16.141Z,13.68
2022-10-08T12:28:43.357Z,13.10
2022-10-08T12:32:00.923Z,13.45
2022-10-08T12:34:32.271Z,13.82
2022-10-08T12:37:46.443Z,12.98
2022-10-08T12:40:31.533Z,14.23
2022-10-08T12:43:34.776Z,13.47
2022-10-08T12:46:35.375Z,13.30
2022-10-08T12:49:42.600Z,13.65
2022-10-08T12:52:18.927Z,13.40
2022-10-08T12:54:59.292Z,12.93
2022-10-08T12:57:37.755Z,12.63
2022-10-08T13:00:29.297Z,13.35
2022-10-08T13:03:06.184Z,12.68
2022-10-08T13:05:40.408Z,13.13
2022-10-08T13:08:32.225Z,13.20
2022-10-08T13:11:04.862Z,13.02
2022-10-08T13:13:40.885Z,12.30
2022-10-08T13:16:13.345Z,13.45
2022-10-08T13:18:50.762Z,13.23
2022-10-08T13:21:33.043Z,13.65
2022-10-08T13:24:25.409Z,12.32
2022-10-08T13:26:57.215Z,11.25
2022-10-08T13:29:24.178Z,14.57
2022-10-08T13:32:00.006Z,11.43
2022-10-08T13:34:40.525Z,12.27
2022-10-08T13:37:22.896Z,13.15
2022-10-08T13:40:19.280Z,12.23
2022-10-08T13:42:53.847Z,10.98
2022-10-08T13:45:28.455Z,12.40
2022-10-08T13:47:56.715Z,11.55
2022-10-08T13:50:24.731Z,10.77
2022-10-08T13:52:55.693Z,10.57
2022-10-08T13:55:27.931Z,11.73
2022-10-08T13:58:01.961Z,11.50
2022-10-08T14:00:31.581Z,11.80
2022-10-08T14:02:59.265Z,9.65
2022-10-08T14:05:30.009Z,12.30
2022-10-08T14:08:01.909Z,11.25
2022-10-08T14:10:29.455Z,11.00
2022-10-08T14:12:56.586Z,11.43
2022-10-08T14:15:24.510Z,11.77
2022-10-08T14:17:53.406Z,10.57
2022-10-08T14:20:20.777Z,10.45
2022-10-08T14:22:51.593Z,10.05
2022-10-08T14:25:23.013Z,10.18
2022-10-08T14:27:50.938Z,10.70
2022-10-08T14:30:18.910Z,10.05
2022-10-08T14:32:46.322Z,10.60
2022-10-08T14:35:17.114Z,10.85
2022-10-08T14:37:44.212Z,10.25
2022-10-08T14:40:21.030Z,10.27
2022-10-08T14:42:48.824Z,9.27
2022-10-08T14:45:16.171Z,9.63
2022-10-08T14:47:43.377Z,10.93
2022-10-08T14:50:10.641Z,9.93
2022-10-08T14:52:44.471Z,10.23
2022-10-08T14:55:15.563Z,9.80
2022-10-08T14:57:43.673Z,9.70
2022-10-08T15:00:13.250Z,12.32
2022-10-08T15:02:46.392Z,10.77
2022-10-08T15:05:13.599Z,10.20
2022-10-08T15:07:40.736Z,10.80
2022-10-08T15:10:08.797Z,10.40
2022-10-08T15:12:36.024Z,10.50
2022-10-08T15:15:03.560Z,9.90
2022-10-08T15:17:31.674Z,10.38
2022-10-08T15:19:59.001Z,10.73
2022-10-08T15:22:29.672Z,9.27
2022-10-08T15:24:56.740Z,9.10
2022-10-08T15:27:24.061Z,8.93
2022-10-08T15:29:51.201Z,9.30
2022-10-08T15:32:25.203Z,9.55
2022-10-08T15:34:54.343Z,9.75
2022-10-08T15:37:21.627Z,9.73
2022-10-08T15:39:48.860Z,9.55
2022-10-08T15:42:15.988Z,9.15
2022-10-08T15:44:44.074Z,10.50
2022-10-08T15:47:12.201Z,9.57
2022-10-08T15:49:42.867Z,10.70
2022-10-08T15:52:18.323Z,11.00
2022-10-08T15:57:16.482Z,10.85
2022-10-08T15:59:47.395Z,9.77
2022-10-08T16:02:18.677Z,9.57
2022-10-08T16:04:47.344Z,11.18
2022-10-08T16:07:14.963Z,9.75
2022-10-08T16:09:42.133Z,10.52
2022-10-08T16:12:09.456Z,10.13
2022-10-08T16:14:36.636Z,12.05
2022-10-08T16:17:03.790Z,16.27
2022-10-08T16:19:30.896Z,14.32
2022-10-08T16:21:58.870Z,14.20
2022-10-08T16:24:26.226Z,12.68
2022-10-08T16:26:53.410Z,13.27
2022-10-08T16:29:23.975Z,12.15
2022-10-08T16:31:51.114Z,12.60
2022-10-08T16:34:23.932Z,11.85
2022-10-08T16:36:51.483Z,12.55
2022-10-08T16:39:21.823Z,12.88
2022-10-08T16:41:49.440Z,12.88
2022-10-08T16:44:20.025Z,11.65
2022-10-08T16:46:51.058Z,13.07
2022-10-08T16:49:27.107Z,11.50
2022-10-08T16:52:00.108Z,13.30
2022-10-08T16:54:28.589Z,14.10
2022-10-08T16:56:56.748Z,14.30
2022-10-08T16:59:27.009Z,14.80
2022-10-08T17:01:57.580Z,14.90
2022-10-08T17:04:27.762Z,13.73
2022-10-08T17:06:58.370Z,13.55
2022-10-08T17:09:25.742Z,14.63
2022-10-08T17:11:52.970Z,13.65
2022-10-08T17:14:20.153Z,14.75
2022-10-08T17:16:49.727Z,14.85
2022-10-08T17:19:17.578Z,15.35
2022-10-08T17:21:47.477Z,17.92
2022-10-08T17:24:14.552Z,14.55
2022-10-08T17:26:42.547Z,15.70
2022-10-08T17:29:12.038Z,15.77
2022-10-08T17:31:39.757Z,15.40
2022-10-08T17:34:07.670Z,14.77
2022-10-08T17:36:41.945Z,14.05
2022-10-08T17:39:13.755Z,15.48
2022-10-08T17:41:44.448Z,17.17
2022-10-08T17:44:12.719Z,16.00
2022-10-08T17:46:47.250Z,16.52
2022-10-08T17:49:20.816Z,14.50
2022-10-08T17:51:52.033Z,14.38
2022-10-08T17:54:20.971Z,15.52
2022-10-08T17:56:49.251Z,15.70
2022-10-08T17:59:22.891Z,15.93
2022-10-08T18:01:50.817Z,15.80
2022-10-08T18:04:20.265Z,15.68
2022-10-08T18:06:49.164Z,16.13
2022-10-08T18:09:20.627Z,17.67
2022-10-08T18:11:53.970Z,16.38
2022-10-08T18:14:25.334Z,19.00
2022-10-08T18:16:53.542Z,18.75
2022-10-08T18:19:23.639Z,19.75
2022-10-08T18:21:51.671Z,17.80
2022-10-08T18:24:19.388Z,17.38
2022-10-08T18:26:53.550Z,17.17
2022-10-08T18:29:21.007Z,16.95
2022-10-08T18:31:48.193Z,18.15
2022-10-08T18:34:18.619Z,19.02
2022-10-08T18:36:52.930Z,17.27
2022-10-08T18:39:28.404Z,18.45
2022-10-08T18:41:56.372Z,17.05
2022-10-08T18:44:27.933Z,17.85
2022-10-08T18:47:03.059Z,19.05
2022-10-08T18:49:33.949Z,20.02
2022-10-08T18:52:02.176Z,18.58
2022-10-08T18:54:30.089Z,18.42
2022-10-08T18:57:00.733Z,16.92
2022-10-08T18:59:32.132Z,18.65
2022-10-08T19:02:00.671Z,18.48
2022-10-08T19:04:31.168Z,19.63
2022-10-08T19:07:04.682Z,18.60
2022-10-08T19:09:31.810Z,16.52
2022-10-08T19:12:00.837Z,18.40
2022-10-08T19:14:29.018Z,18.88
2022-10-08T19:17:00.503Z,16.58
2022-10-08T19:19:29.521Z,16.00
2022-10-08T19:22:00.746Z,15.75
2022-10-08T19:24:28.909Z,16.52
2022-10-08T19:26:57.628Z,14.98
2022-10-08T19:29:29.754Z,15.50
2022-10-08T19:31:58.598Z,15.82
2022-10-08T19:34:29.227Z,15.93
2022-10-08T19:36:57.251Z,16.58
2022-10-08T19:39:28.447Z,18.40
2022-10-08T19:41:58.282Z,17.35
2022-10-08T19:44:26.405Z,18.38
2022-10-08T19:46:57.849Z,17.83
2022-10-08T19:49:25.945Z,19.75
2022-10-08T19:51:55.872Z,18.50
2022-10-08T19:54:24.121Z,20.98
2022-10-08T19:56:55.976Z,20.30
2022-10-08T19:59:23.248Z,19.25
2022-10-08T20:01:50.394Z,20.60
2022-10-08T20:04:21.850Z,19.80
2022-10-08T20:06:49.229Z,18.85
2022-10-08T20:09:16.890Z,18.80
2022-10-08T20:11:46.360Z,18.60
2022-10-08T20:14:15.295Z,19.65
2022-10-08T20:16:43.660Z,19.63
2022-10-08T20:19:18.747Z,18.73
2022-10-08T20:21:47.081Z,17.25
2022-10-08T20:24:15.094Z,17.83
2022-10-08T20:26:43.897Z,17.63
2022-10-08T20:29:18.568Z,17.77
2022-10-08T20:31:50.088Z,17.73
2022-10-08T20:34:20.824Z,15.63
2022-10-08T20:36:48.739Z,16.83
2022-10-08T20:39:18.833Z,16.17
2022-10-08T20:41:46.191Z,16.25
2022-10-08T20:44:14.012Z,16.88
2022-10-08T20:46:44.604Z,17.38
2022-10-08T20:49:13.460Z,17.70
2022-10-08T20:51:42.780Z,18.10
2022-10-08T20:54:14.091Z,17.13
2022-10-08T20:56:45.377Z,17.60
2022-10-08T20:59:17.825Z,17.88
2022-10-08T21:01:45.973Z,17.90
2022-10-08T21:04:13.383Z,17.25
2022-10-08T21:06:47.674Z,17.83
2022-10-08T21:09:18.421Z,16.35
2022-10-08T21:11:46.138Z,16.50
2022-10-08T21:14:19.201Z,15.77
2022-10-08T21:19:21.570Z,14.90
2022-10-08T21:21:52.306Z,15.47
2022-10-08T21:24:19.622Z,15.68
2022-10-08T21:26:49.849Z,15.95
2022-10-08T21:29:23.393Z,15.35
2022-10-08T21:31:54.029Z,15.63
2022-10-08T21:34:21.108Z,13.70
2022-10-08T21:36:51.155Z,13.13
2022-10-08T21:39:18.488Z,15.88
2022-10-08T21:41:48.503Z,13.45
2022-10-08T21:44:15.721Z,13.13
2022-10-08T21:46:43.685Z,14.73
2022-10-08T21:49:22.536Z,13.85
2022-10-08T21:51:49.729Z,14.15
2022-10-08T21:54:17.492Z,13.50
2022-10-08T21:56:47.791Z,13.80
2022-10-08T21:59:16.148Z,13.35
2022-10-08T22:01:50.819Z,12.77
2022-10-08T22:04:24.986Z,11.85
2022-10-08T22:07:01.851Z,10.80
2022-10-08T22:09:32.987Z,11.05
2022-10-08T22:12:03.275Z,9.73
2022-10-08T22:14:30.705Z,9.13
2022-10-08T22:16:58.277Z,7.85
2022-10-08T22:19:28.877Z,9.15
2022-10-08T22:21:55.917Z,8.82
2022-10-08T22:24:22.979Z,8.88
2022-10-08T22:26:50.620Z,8.13
2022-10-08T22:29:18.175Z,7.95
2022-10-08T22:31:46.100Z,7.32
2022-10-08T22:34:13.718Z,7.60
2022-10-08T22:36:45.254Z,6.65
2022-10-08T22:39:12.841Z,7.28
2022-10-08T22:41:46.498Z,7.95
2022-10-08T22:44:16.288Z,6.75
2022-10-08T22:46:43.368Z,6.75
2022-10-08T22:49:12.509Z,6.95
2022-10-08T22:51:40.172Z,6.28
2022-10-08T22:54:10.551Z,6.22
2022-10-08T22:56:38.141Z,6.38
2022-10-08T22:59:08.551Z,6.38
2022-10-08T23:01:35.953Z,6.28
2022-10-08T23:04:03.150Z,5.55
2022-10-08T23:06:36.140Z,6.20
2022-10-08T23:09:07.213Z,6.65
2022-10-08T23:11:35.215Z,5.75
2022-10-08T23:14:02.610Z,6.53
2022-10-08T23:16:31.654Z,5.40
2022-10-08T23:19:06.957Z,6.72
2022-10-08T23:21:35.770Z,5.43
2022-10-08T23:24:03.552Z,5.57
2022-10-08T23:26:31.048Z,5.00
2022-10-08T23:29:00.741Z,6.13
2022-10-08T23:31:32.337Z,5.10
2022-10-08T23:34:01.160Z,5.40
2022-10-08T23:36:33.015Z,5.28
2022-10-08T23:39:05.699Z,5.55
2022-10-08T23:41:33.781Z,5.05
2022-10-08T23:44:01.049Z,4.95
2022-10-08T23:46:32.583Z,4.53
2022-10-08T23:49:00.501Z,5.13
2022-10-08T23:51:29.172Z,5.22
2022-10-08T23:53:59.960Z,4.90
2022-10-08T23:56:27.135Z,4.60
2022-10-08T23:58:54.336Z,5.20
